createdAt,value
2018-09-15T00:02:10.615Z,15.00
2018-09-15T00:04:39.853Z,16.57
2018-09-15T00:07:09.069Z,15.50
2018-09-15T00:09:38.325Z,15.97
2018-09-15T00:12:08.834Z,16.17
2018-09-15T00:14:38.295Z,13.10
2018-09-15T00:17:07.716Z,13.80
2018-09-15T00:19:37.303Z,16.40
2018-09-15T00:22:06.528Z,13.87
2018-09-15T00:24:35.765Z,14.40
2018-09-15T00:27:05.117Z,14.10
2018-09-15T00:29:34.345Z,14.00
2018-09-15T00:32:03.719Z,13.07
2018-09-15T00:34:32.942Z,13.00
2018-09-15T00:37:02.178Z,13.13
2018-09-15T00:39:31.412Z,12.97
2018-09-15T00:42:00.660Z,13.00
2018-09-15T00:44:29.981Z,11.17
2018-09-15T00:46:59.254Z,14.03
2018-09-15T00:49:28.517Z,13.60
2018-09-15T00:51:57.827Z,12.53
2018-09-15T00:54:27.078Z,12.90
2018-09-15T00:56:56.295Z,13.63
2018-09-15T00:59:25.632Z,12.60
2018-09-15T01:01:54.835Z,11.97
2018-09-15T01:04:24.090Z,11.43
2018-09-15T01:06:53.292Z,11.77
2018-09-15T01:09:22.531Z,10.70
2018-09-15T01:11:51.750Z,9.60
2018-09-15T01:14:21.166Z,10.70
2018-09-15T01:16:50.236Z,10.90
2018-09-15T01:19:19.480Z,10.73
2018-09-15T01:21:48.704Z,9.23
2018-09-15T01:24:17.952Z,10.20
2018-09-15T01:26:47.232Z,11.03
2018-09-15T01:29:16.463Z,12.00
2018-09-15T01:31:45.704Z,10.60
2018-09-15T01:34:14.866Z,9.80
2018-09-15T01:36:44.108Z,9.67
2018-09-15T01:39:13.411Z,9.70
2018-09-15T01:41:42.701Z,9.87
2018-09-15T01:44:11.986Z,8.80
2018-09-15T01:46:41.239Z,10.30
2018-09-15T01:49:10.487Z,10.90
2018-09-15T01:51:39.657Z,9.30
2018-09-15T01:54:08.892Z,9.30
2018-09-15T01:56:38.135Z,10.63
2018-09-15T01:59:07.472Z,10.20
2018-09-15T02:01:36.753Z,8.83
2018-09-15T02:04:05.945Z,9.17
2018-09-15T02:06:35.179Z,9.20
2018-09-15T02:09:07.110Z,9.47
2018-09-15T02:11:36.354Z,8.70
2018-09-15T02:14:05.863Z,10.17
2018-09-15T02:16:35.042Z,9.00
2018-09-15T02:19:04.467Z,9.70
2018-09-15T02:21:33.712Z,8.97
2018-09-15T02:24:02.943Z,10.33
2018-09-15T02:26:32.157Z,9.30
2018-09-15T02:29:01.600Z,8.27
2018-09-15T02:31:30.951Z,8.17
2018-09-15T02:34:00.233Z,8.60
2018-09-15T02:36:29.652Z,11.03
2018-09-15T02:38:58.816Z,8.90
2018-09-15T02:41:28.044Z,8.57
2018-09-15T02:43:57.280Z,10.60
2018-09-15T02:46:26.571Z,9.17
2018-09-15T02:48:55.782Z,8.67
2018-09-15T02:51:25.079Z,10.07
2018-09-15T02:53:54.389Z,8.63
2018-09-15T02:56:23.567Z,9.10
2018-09-15T02:58:53.516Z,8.63
2018-09-15T03:01:22.935Z,9.77
2018-09-15T03:03:52.188Z,10.53
2018-09-15T03:06:21.421Z,9.33
2018-09-15T03:08:50.719Z,10.90
2018-09-15T03:11:20.071Z,9.87
2018-09-15T03:13:49.367Z,9.90
2018-09-15T03:16:18.956Z,10.73
2018-09-15T03:18:48.608Z,10.40
2018-09-15T03:21:18.051Z,11.47
2018-09-15T03:23:47.451Z,11.93
2018-09-15T03:26:16.999Z,12.97
2018-09-15T03:28:46.280Z,13.13
2018-09-15T03:31:15.603Z,12.27
2018-09-15T03:33:44.955Z,13.07
2018-09-15T03:36:14.171Z,11.90
2018-09-15T03:38:43.354Z,12.33
2018-09-15T03:41:12.604Z,13.83
2018-09-15T03:43:41.801Z,12.67
2018-09-15T03:46:11.103Z,13.90
2018-09-15T03:48:40.664Z,15.23
2018-09-15T03:51:10.205Z,15.10
2018-09-15T03:53:39.499Z,13.63
2018-09-15T03:56:09.275Z,13.10
2018-09-15T03:58:38.599Z,13.20
2018-09-15T04:01:08.663Z,12.93
2018-09-15T04:03:37.977Z,13.60
2018-09-15T04:06:07.187Z,17.70
2018-09-15T04:08:36.418Z,14.93
2018-09-15T04:11:05.655Z,16.53
2018-09-15T04:13:34.904Z,15.27
2018-09-15T04:16:04.238Z,17.20
2018-09-15T04:18:33.583Z,17.60
2018-09-15T04:21:02.860Z,16.77
2018-09-15T04:23:32.080Z,18.60
2018-09-15T04:26:01.315Z,19.17
2018-09-15T04:28:30.674Z,20.30
2018-09-15T04:30:59.792Z,20.80
2018-09-15T04:33:29.120Z,21.33
2018-09-15T04:35:58.353Z,21.07
2018-09-15T04:38:27.594Z,21.30
2018-09-15T04:40:56.803Z,22.40
2018-09-15T04:43:26.115Z,22.33
2018-09-15T04:45:55.348Z,25.10
2018-09-15T04:48:24.623Z,26.90
2018-09-15T04:50:53.905Z,24.70
2018-09-15T04:53:23.173Z,28.70
2018-09-15T04:55:52.506Z,25.07
2018-09-15T04:58:21.695Z,28.50
2018-09-15T05:00:51.883Z,28.17
2018-09-15T05:03:21.263Z,28.80
2018-09-15T05:05:50.506Z,27.80
2018-09-15T05:08:19.724Z,28.60
2018-09-15T05:10:48.930Z,28.03
2018-09-15T05:13:18.117Z,25.07
2018-09-15T05:15:47.488Z,28.40
2018-09-15T05:18:17.020Z,29.50
2018-09-15T05:20:46.357Z,28.40
2018-09-15T05:23:16.982Z,27.77
2018-09-15T05:25:46.234Z,33.13
2018-09-15T05:28:15.480Z,27.20
2018-09-15T05:30:44.666Z,29.30
2018-09-15T05:33:14.090Z,25.83
2018-09-15T05:35:43.365Z,29.27
2018-09-15T05:38:13.111Z,28.50
2018-09-15T05:40:42.439Z,30.60
2018-09-15T05:43:11.744Z,29.13
2018-09-15T05:45:41.081Z,32.50
2018-09-15T05:48:10.545Z,30.33
2018-09-15T05:50:39.903Z,31.80
2018-09-15T05:53:09.424Z,31.37
2018-09-15T05:55:38.766Z,32.60
2018-09-15T05:58:08.191Z,30.67
2018-09-15T06:00:37.604Z,30.63
2018-09-15T06:03:06.943Z,30.23
2018-09-15T06:05:36.394Z,34.20
2018-09-15T06:08:06.055Z,31.57
2018-09-15T06:10:35.453Z,31.23
2018-09-15T06:13:04.981Z,32.90
2018-09-15T06:15:34.556Z,36.53
2018-09-15T06:18:03.912Z,32.73
2018-09-15T06:20:33.349Z,28.00
2018-09-15T06:23:02.964Z,30.37
2018-09-15T06:25:32.365Z,31.03
2018-09-15T06:28:01.961Z,28.00
2018-09-15T06:30:31.242Z,33.50
2018-09-15T06:33:00.625Z,29.23
2018-09-15T06:35:29.962Z,31.37
2018-09-15T06:37:59.334Z,28.27
2018-09-15T06:40:28.755Z,28.60
2018-09-15T06:42:58.217Z,30.80
2018-09-15T06:45:27.610Z,28.97
2018-09-15T06:47:56.910Z,29.83
2018-09-15T06:50:26.554Z,30.63
2018-09-15T06:52:56.027Z,32.63
2018-09-15T06:55:25.628Z,31.10
2018-09-15T06:57:54.977Z,30.10
2018-09-15T07:00:24.474Z,29.70
2018-09-15T07:02:53.735Z,30.33
2018-09-15T07:05:23.015Z,30.07
2018-09-15T07:07:52.266Z,29.00
2018-09-15T07:10:21.477Z,25.93
2018-09-15T07:12:50.650Z,29.50
2018-09-15T07:15:20.286Z,29.17
2018-09-15T07:17:49.585Z,28.47
2018-09-15T07:20:19.139Z,30.87
2018-09-15T07:22:48.326Z,29.77
2018-09-15T07:25:18.001Z,29.87
2018-09-15T07:27:47.460Z,28.30
2018-09-15T07:30:16.717Z,27.67
2018-09-15T07:32:45.932Z,27.50
2018-09-15T07:35:15.135Z,25.83
2018-09-15T07:37:44.584Z,25.90
2018-09-15T07:40:13.749Z,26.40
2018-09-15T07:42:42.998Z,25.23
2018-09-15T07:45:12.271Z,26.47
2018-09-15T07:47:41.509Z,25.47
2018-09-15T07:50:12.544Z,24.60
2018-09-15T07:52:42.655Z,25.27
2018-09-15T07:55:15.595Z,26.07
2018-09-15T07:57:47.017Z,25.50
2018-09-15T08:00:17.993Z,25.87
2018-09-15T08:02:50.748Z,26.57
2018-09-15T08:05:22.495Z,24.57
2018-09-15T08:07:52.298Z,25.00
2018-09-15T08:10:29.582Z,27.10
2018-09-15T08:13:01.172Z,24.90
2018-09-15T08:15:33.482Z,24.43
2018-09-15T08:18:08.534Z,25.67
2018-09-15T08:20:38.866Z,26.47
2018-09-15T08:23:13.438Z,25.93
2018-09-15T08:25:44.973Z,26.70
2018-09-15T08:28:18.700Z,25.40
2018-09-15T08:30:50.243Z,24.97
2018-09-15T08:33:22.010Z,22.27
2018-09-15T08:35:53.958Z,24.37
2018-09-15T08:38:23.619Z,24.50
2018-09-15T08:41:06.770Z,26.30
2018-09-15T08:43:36.486Z,24.37
2018-09-15T08:46:05.880Z,26.87
2018-09-15T08:48:35.223Z,25.30
2018-09-15T08:51:04.702Z,24.73
2018-09-15T08:53:34.084Z,25.00
2018-09-15T08:56:03.436Z,25.33
2018-09-15T08:58:32.771Z,24.47
2018-09-15T09:01:03.431Z,25.63
2018-09-15T09:03:34.054Z,24.40
2018-09-15T09:06:03.389Z,24.43
2018-09-15T09:08:32.741Z,25.37
2018-09-15T09:11:01.982Z,23.17
2018-09-15T09:13:32.914Z,23.60
2018-09-15T09:16:02.328Z,23.57
2018-09-15T09:18:33.621Z,20.90
2018-09-15T09:21:04.636Z,22.90
2018-09-15T09:23:35.063Z,19.97
2018-09-15T09:26:04.766Z,22.97
2018-09-15T09:28:34.248Z,24.27
2018-09-15T09:31:03.489Z,23.87
2018-09-15T09:33:32.851Z,18.90
2018-09-15T09:36:02.105Z,23.03
2018-09-15T09:38:31.291Z,21.53
2018-09-15T09:41:00.545Z,21.17
2018-09-15T09:43:30.052Z,21.90
2018-09-15T09:45:59.278Z,22.60
2018-09-15T09:48:28.539Z,21.87
2018-09-15T09:50:57.997Z,20.60
2018-09-15T09:53:27.247Z,22.90
2018-09-15T09:55:56.458Z,21.63
2018-09-15T09:58:25.764Z,20.37
2018-09-15T10:01:00.434Z,20.17
2018-09-15T10:03:30.072Z,19.00
2018-09-15T10:05:59.418Z,19.50
2018-09-15T10:08:28.721Z,23.30
2018-09-15T10:10:58.067Z,21.97
2018-09-15T10:13:27.305Z,22.90
2018-09-15T10:15:56.727Z,19.57
2018-09-15T10:18:26.516Z,17.00
2018-09-15T10:20:56.014Z,23.23
2018-09-15T10:23:25.719Z,20.00
2018-09-15T10:25:54.995Z,20.63
2018-09-15T10:28:24.252Z,18.40
2018-09-15T10:30:53.580Z,17.97
2018-09-15T10:33:23.787Z,14.90
2018-09-15T10:35:53.410Z,17.40
2018-09-15T10:38:22.713Z,16.30
2018-09-15T10:40:51.967Z,15.07
2018-09-15T10:43:21.215Z,14.07
2018-09-15T10:45:50.791Z,12.20
2018-09-15T10:48:20.054Z,12.67
2018-09-15T10:50:49.302Z,12.47
2018-09-15T10:53:18.598Z,12.80
2018-09-15T10:55:47.867Z,12.30
2018-09-15T10:58:17.145Z,12.93
2018-09-15T11:00:46.534Z,13.03
2018-09-15T11:03:15.733Z,12.70
2018-09-15T11:05:45.167Z,13.20
2018-09-15T11:08:14.436Z,13.03
2018-09-15T11:10:43.774Z,13.60
2018-09-15T11:13:13.043Z,12.00
2018-09-15T11:15:42.403Z,10.90
2018-09-15T11:18:11.643Z,11.77
2018-09-15T11:20:41.270Z,11.10
2018-09-15T11:23:10.575Z,10.30
2018-09-15T11:25:39.813Z,11.63
2018-09-15T11:28:09.591Z,9.83
2018-09-15T11:30:39.299Z,9.90
2018-09-15T11:33:08.664Z,9.70
2018-09-15T11:35:38.606Z,9.03
2018-09-15T11:38:08.220Z,8.00
2018-09-15T11:40:37.477Z,9.77
2018-09-15T11:43:06.778Z,9.30
2018-09-15T11:45:36.318Z,9.00
2018-09-15T11:48:05.772Z,8.60
2018-09-15T11:50:35.112Z,9.60
2018-09-15T11:53:04.442Z,10.50
2018-09-15T11:55:33.716Z,13.57
2018-09-15T11:58:02.958Z,17.47
2018-09-15T12:00:36.206Z,16.73
2018-09-15T12:03:05.494Z,15.23
2018-09-15T12:05:34.703Z,12.00
2018-09-15T12:08:03.883Z,14.57
2018-09-15T12:10:33.119Z,13.43
2018-09-15T12:13:02.315Z,14.20
2018-09-15T12:15:31.577Z,14.13
2018-09-15T12:18:00.761Z,13.00
2018-09-15T12:20:30.227Z,14.27
2018-09-15T12:22:59.515Z,14.73
2018-09-15T12:25:28.794Z,14.03
2018-09-15T12:27:58.033Z,12.60
2018-09-15T12:30:27.271Z,11.87
2018-09-15T12:32:56.433Z,11.00
2018-09-15T12:35:25.648Z,10.37
2018-09-15T12:37:54.879Z,10.17
2018-09-15T12:40:24.112Z,10.23
2018-09-15T12:42:55.485Z,8.77
2018-09-15T12:45:25.103Z,9.07
2018-09-15T12:47:56.482Z,10.37
2018-09-15T12:50:26.346Z,9.60
2018-09-15T12:52:56.158Z,9.87
2018-09-15T12:55:26.216Z,9.17
2018-09-15T12:57:56.712Z,8.47
2018-09-15T13:00:26.726Z,6.90
2018-09-15T13:02:56.504Z,8.07
2018-09-15T13:05:26.277Z,11.57
2018-09-15T13:07:55.950Z,10.90
2018-09-15T13:10:25.589Z,9.77
2018-09-15T13:12:55.564Z,11.30
2018-09-15T13:15:25.694Z,10.43
2018-09-15T13:17:55.181Z,10.10
2018-09-15T13:20:25.073Z,7.73
2018-09-15T13:22:55.152Z,9.70
2018-09-15T13:25:24.954Z,10.00
2018-09-15T13:27:56.303Z,9.63
2018-09-15T13:30:25.945Z,8.70
2018-09-15T13:32:55.705Z,8.23
2018-09-15T13:35:25.054Z,6.87
2018-09-15T13:37:54.363Z,7.83
2018-09-15T13:40:23.588Z,8.80
2018-09-15T13:42:52.832Z,8.37
2018-09-15T13:45:22.025Z,7.50
2018-09-15T13:47:51.215Z,7.90
2018-09-15T13:50:20.463Z,9.30
2018-09-15T13:52:49.729Z,11.30
2018-09-15T13:55:19.019Z,9.20
2018-09-15T13:57:48.323Z,9.07
2018-09-15T14:00:17.690Z,9.97
2018-09-15T14:02:46.912Z,7.53
2018-09-15T14:05:16.292Z,9.83
2018-09-15T14:07:45.552Z,8.03
2018-09-15T14:10:19.014Z,8.73
2018-09-15T14:12:44.248Z,9.10
2018-09-15T14:15:13.564Z,9.63
2018-09-15T14:17:42.837Z,8.73
2018-09-15T14:20:12.045Z,10.23
2018-09-15T14:22:41.292Z,10.47
2018-09-15T14:25:10.624Z,10.47
2018-09-15T14:27:39.847Z,11.00
2018-09-15T14:30:09.205Z,9.03
2018-09-15T14:32:38.442Z,7.57
2018-09-15T14:35:08.043Z,8.40
2018-09-15T14:37:37.339Z,7.93
2018-09-15T14:40:06.623Z,9.33
2018-09-15T14:42:35.792Z,8.17
2018-09-15T14:45:11.863Z,7.90
2018-09-15T14:47:41.273Z,9.43
2018-09-15T14:50:10.752Z,8.03
2018-09-15T14:52:40.056Z,9.00
2018-09-15T14:55:09.406Z,9.73
2018-09-15T14:57:38.827Z,10.10
2018-09-15T15:00:09.020Z,9.50
2018-09-15T15:02:38.712Z,9.60
2018-09-15T15:05:08.235Z,9.13
2018-09-15T15:07:37.572Z,9.00
2018-09-15T15:10:06.980Z,8.80
2018-09-15T15:12:38.717Z,7.60
2018-09-15T15:15:08.188Z,7.90
2018-09-15T15:17:37.514Z,7.90
2018-09-15T15:20:07.218Z,7.70
2018-09-15T15:22:36.440Z,7.13
2018-09-15T15:25:06.212Z,7.60
2018-09-15T15:27:35.922Z,8.83
2018-09-15T15:30:05.469Z,7.97
2018-09-15T15:32:37.024Z,7.10
2018-09-15T15:35:06.554Z,7.40
2018-09-15T15:37:36.127Z,7.23
2018-09-15T15:40:05.393Z,7.60
2018-09-15T15:42:35.050Z,7.70
2018-09-15T15:45:04.528Z,7.30
2018-09-15T15:47:34.263Z,8.37
2018-09-15T15:50:03.680Z,8.90
2018-09-15T15:52:32.971Z,9.03
2018-09-15T15:55:02.683Z,7.40
2018-09-15T15:57:31.947Z,8.70
2018-09-15T16:00:01.198Z,8.40
2018-09-15T16:02:30.913Z,8.60
2018-09-15T16:05:00.508Z,9.30
2018-09-15T16:07:29.846Z,8.73
2018-09-15T16:09:59.023Z,8.03
2018-09-15T16:12:28.297Z,9.07
2018-09-15T16:14:57.774Z,9.23
2018-09-15T16:17:27.444Z,9.50
2018-09-15T16:19:56.740Z,9.33
2018-09-15T16:22:26.038Z,8.00
2018-09-15T16:24:55.261Z,8.70
2018-09-15T16:27:24.941Z,7.40
2018-09-15T16:29:54.313Z,7.50
2018-09-15T16:32:23.591Z,6.87
2018-09-15T16:34:52.838Z,6.83
2018-09-15T16:37:22.214Z,6.27
2018-09-15T16:39:51.600Z,7.90
2018-09-15T16:42:20.888Z,6.67
2018-09-15T16:44:50.056Z,7.00
2018-09-15T16:47:19.306Z,7.67
2018-09-15T16:49:49.584Z,7.07
2018-09-15T16:52:18.890Z,7.63
2018-09-15T16:54:48.524Z,6.80
2018-09-15T16:57:17.853Z,7.77
2018-09-15T16:59:47.091Z,7.20
2018-09-15T17:02:16.367Z,6.07
2018-09-15T17:04:45.723Z,7.60
2018-09-15T17:07:15.065Z,7.70
2018-09-15T17:09:44.694Z,7.47
2018-09-15T17:12:14.202Z,7.77
2018-09-15T17:14:43.929Z,7.13
2018-09-15T17:17:13.121Z,7.23
2018-09-15T17:19:42.912Z,6.23
2018-09-15T17:22:12.201Z,7.50
2018-09-15T17:24:41.434Z,7.13
2018-09-15T17:27:11.530Z,7.30
2018-09-15T17:29:40.942Z,7.17
2018-09-15T17:32:10.406Z,7.70
2018-09-15T17:34:39.751Z,7.97
2018-09-15T17:37:18.796Z,6.60
2018-09-15T17:43:14.072Z,8.13
2018-09-15T17:45:44.630Z,5.60
2018-09-15T17:48:14.635Z,5.13
2018-09-15T17:50:43.985Z,6.33
2018-09-15T17:53:14.036Z,6.77
2018-09-15T17:55:43.762Z,6.90
2018-09-15T17:58:13.370Z,6.47
2018-09-15T18:00:43.071Z,7.33
2018-09-15T18:03:12.722Z,6.90
2018-09-15T18:05:42.614Z,7.37
2018-09-15T18:08:12.299Z,7.43
2018-09-15T18:10:41.818Z,7.50
2018-09-15T18:13:11.482Z,8.57
2018-09-15T18:15:41.298Z,7.60
2018-09-15T18:18:10.857Z,8.40
2018-09-15T18:20:40.400Z,7.73
2018-09-15T18:23:10.005Z,8.30
2018-09-15T18:25:40.040Z,8.17
2018-09-15T18:28:09.708Z,8.20
2018-09-15T18:30:39.634Z,7.87
2018-09-15T18:33:09.344Z,7.60
2018-09-15T18:35:38.892Z,8.00
2018-09-15T18:38:08.384Z,8.13
2018-09-15T18:40:38.035Z,6.80
2018-09-15T18:43:07.576Z,7.20
2018-09-15T18:45:37.083Z,7.37
2018-09-15T18:48:06.762Z,7.93
2018-09-15T18:50:36.472Z,7.80
2018-09-15T18:53:06.414Z,7.43
2018-09-15T18:55:36.245Z,8.20
2018-09-15T18:58:05.791Z,7.90
2018-09-15T19:00:35.718Z,8.17
2018-09-15T19:03:05.379Z,7.80
2018-09-15T19:05:35.223Z,7.07
2018-09-15T19:08:04.904Z,8.20
2018-09-15T19:10:34.423Z,8.27
2018-09-15T19:13:04.159Z,7.90
2018-09-15T19:15:33.894Z,8.17
2018-09-15T19:18:03.837Z,8.10
2018-09-15T19:20:33.312Z,7.00
2018-09-15T19:23:03.186Z,7.77
2018-09-15T19:25:32.625Z,7.30
2018-09-15T19:28:02.436Z,7.50
2018-09-15T19:30:32.034Z,7.73
2018-09-15T19:33:01.748Z,7.60
2018-09-15T19:35:31.162Z,7.20
2018-09-15T19:38:01.106Z,7.67
2018-09-15T19:40:30.811Z,7.83
2018-09-15T19:43:00.436Z,8.30
2018-09-15T19:45:30.035Z,8.33
2018-09-15T19:47:59.630Z,9.07
2018-09-15T19:50:29.377Z,8.00
2018-09-15T19:52:58.956Z,8.40
2018-09-15T19:55:28.543Z,8.10
2018-09-15T19:57:58.119Z,8.23
2018-09-15T20:00:27.747Z,7.73
2018-09-15T20:02:57.373Z,8.73
2018-09-15T20:05:27.149Z,7.63
2018-09-15T20:07:56.802Z,9.17
2018-09-15T20:10:26.778Z,8.40
2018-09-15T20:12:56.993Z,9.53
2018-09-15T20:15:27.213Z,8.70
2018-09-15T20:17:55.048Z,10.00
2018-09-15T20:20:23.955Z,9.07
2018-09-15T20:22:56.265Z,10.30
2018-09-15T20:25:26.097Z,10.37
2018-09-15T20:27:55.565Z,10.20
2018-09-15T20:30:25.039Z,10.33
2018-09-15T20:32:54.645Z,10.97
2018-09-15T20:35:24.138Z,13.20
2018-09-15T20:37:54.247Z,11.40
2018-09-15T20:40:23.818Z,11.90
2018-09-15T20:42:53.253Z,11.07
2018-09-15T20:45:22.657Z,11.33
2018-09-15T20:47:52.231Z,11.20
2018-09-15T20:50:21.568Z,13.07
2018-09-15T20:52:50.951Z,12.63
2018-09-15T20:55:22.563Z,12.20
2018-09-15T20:57:53.784Z,14.27
2018-09-15T21:00:24.048Z,13.90
2018-09-15T21:02:53.880Z,13.63
2018-09-15T21:05:24.016Z,14.10
2018-09-15T21:07:53.901Z,13.37
2018-09-15T21:10:23.747Z,14.33
2018-09-15T21:12:53.683Z,14.43
2018-09-15T21:15:23.470Z,14.47
2018-09-15T21:17:53.632Z,13.97
2018-09-15T21:20:23.585Z,15.13
2018-09-15T21:22:53.315Z,15.33
2018-09-15T21:25:23.163Z,15.00
2018-09-15T21:27:53.498Z,14.60
2018-09-15T21:30:24.016Z,14.43
2018-09-15T21:32:53.247Z,15.20
2018-09-15T21:35:22.473Z,15.70
2018-09-15T21:37:51.748Z,15.23
2018-09-15T21:40:20.973Z,15.30
2018-09-15T21:42:50.222Z,15.53
2018-09-15T21:45:19.513Z,14.43
2018-09-15T21:47:48.795Z,16.63
2018-09-15T21:50:18.057Z,15.47
2018-09-15T21:52:47.313Z,16.00
2018-09-15T21:55:16.566Z,16.10
2018-09-15T21:57:45.750Z,16.17
2018-09-15T22:00:15.112Z,15.53
2018-09-15T22:02:44.316Z,16.30
2018-09-15T22:05:13.713Z,16.03
2018-09-15T22:07:42.909Z,14.90
2018-09-15T22:10:12.145Z,14.67
2018-09-15T22:12:41.377Z,15.60
2018-09-15T22:15:15.471Z,17.77
2018-09-15T22:17:44.693Z,16.57
2018-09-15T22:20:14.024Z,15.20
2018-09-15T22:22:44.023Z,15.67
2018-09-15T22:25:13.692Z,16.60
2018-09-15T22:27:43.022Z,15.40
2018-09-15T22:30:12.439Z,17.10
2018-09-15T22:32:41.705Z,16.43
2018-09-15T22:35:10.904Z,19.10
2018-09-15T22:37:40.506Z,17.93
2018-09-15T22:40:10.955Z,17.77
2018-09-15T22:42:40.768Z,17.10
2018-09-15T22:45:10.009Z,20.67
2018-09-15T22:47:39.717Z,21.07
2018-09-15T22:50:09.065Z,19.33
2018-09-15T22:52:38.361Z,18.33
2018-09-15T22:55:07.779Z,17.63
2018-09-15T22:57:37.022Z,16.10
2018-09-15T23:00:06.449Z,19.47
2018-09-15T23:02:35.941Z,17.53
2018-09-15T23:05:05.221Z,18.60
2018-09-15T23:07:34.408Z,18.90
2018-09-15T23:10:03.772Z,17.10
2018-09-15T23:12:33.083Z,19.10
2018-09-15T23:15:02.315Z,18.40
2018-09-15T23:17:31.681Z,17.20
2018-09-15T23:20:00.908Z,18.50
2018-09-15T23:22:30.287Z,18.30
2018-09-15T23:24:59.507Z,18.20
2018-09-15T23:27:28.864Z,17.40
2018-09-15T23:29:58.455Z,19.50
2018-09-15T23:32:27.758Z,18.60
2018-09-15T23:34:57.036Z,17.87
2018-09-15T23:37:26.256Z,19.03
2018-09-15T23:39:55.526Z,19.20
2018-09-15T23:42:24.755Z,19.80
2018-09-15T23:44:53.964Z,22.67
2018-09-15T23:47:23.213Z,19.87
2018-09-15T23:49:52.440Z,20.27
2018-09-15T23:52:21.621Z,18.70
2018-09-15T23:54:50.897Z,20.70
2018-09-15T23:57:20.093Z,18.80
2018-09-15T23:59:50.832Z,18.40
